Time;durP1;ratioP1;P1;durP2;ratioP2;P2;SDS_P1;SDS_P2;PMS_P1;PMS_P2;Temp;Humidity;BMP_temperature;BMP_pressure;BME280_temperature;BME280_humidity;BME280_pressure;Samples;Min_cycle;Max_cycle;Signal;HPM_P1;HPM_P2
2022/01/20 00:01:17;;;;;;;11.20;5.70;;;3.60;99.90;;;;;;5095666;28;20046;-80
2022/01/20 00:03:42;;;;;;;8.00;4.77;;;3.60;99.90;;;;;;5113493;28;20488;-78
2022/01/20 00:27:52;;;;;;;9.03;4.80;;;3.50;99.90;;;;;;5112843;28;20049;-79
2022/01/20 00:30:41;;;;;;;9.40;5.07;;;3.50;99.90;;;;;;5095827;28;20077;-79
2022/01/20 00:38:24;;;;;;;10.63;5.23;;;3.50;99.90;;;;;;5114062;28;20046;-80
2022/01/20 00:40:50;;;;;;;7.87;4.43;;;3.50;99.90;;;;;;5088845;28;20054;-80
2022/01/20 00:43:16;;;;;;;10.33;4.83;;;3.50;99.90;;;;;;5095997;28;20032;-80
2022/01/20 00:45:42;;;;;;;7.93;4.70;;;3.50;99.90;;;;;;5112821;28;20111;-79
2022/01/20 00:48:08;;;;;;;8.17;4.67;;;3.50;99.90;;;;;;5095437;28;20117;-79
2022/01/20 00:50:38;;;;;;;9.13;4.97;;;3.50;99.90;;;;;;5095408;28;20543;-79
2022/01/20 00:53:03;;;;;;;7.60;4.47;;;3.50;99.90;;;;;;5094980;28;20085;-79
2022/01/20 00:55:29;;;;;;;9.90;4.40;;;3.50;99.90;;;;;;5113385;28;20032;-79
2022/01/20 00:57:55;;;;;;;8.20;4.47;;;3.50;99.90;;;;;;5094648;28;20361;-79
2022/01/20 01:00:21;;;;;;;9.17;4.43;;;3.50;99.90;;;;;;5095103;28;20076;-80
2022/01/20 01:02:47;;;;;;;8.90;5.03;;;3.50;99.90;;;;;;5095116;28;20015;-81
2022/01/20 01:05:13;;;;;;;9.93;4.77;;;3.40;99.90;;;;;;5095098;28;20468;-81
2022/01/20 01:10:06;;;;;;;8.93;4.87;;;3.40;99.90;;;;;;5110738;28;20027;-80
2022/01/20 01:12:40;;;;;;;10.20;5.03;;;3.40;99.90;;;;;;5099129;28;20108;-81
2022/01/20 01:15:12;;;;;;;10.93;4.90;;;3.40;99.90;;;;;;5099444;28;20023;-81
2022/01/20 01:20:25;;;;;;;8.93;4.70;;;3.40;99.90;;;;;;5117242;28;20617;-80
2022/01/20 01:22:51;;;;;;;8.20;4.47;;;3.30;99.90;;;;;;5098578;28;20023;-80
2022/01/20 01:25:17;;;;;;;9.23;4.47;;;3.30;99.90;;;;;;5117630;28;20047;-80
2022/01/20 01:27:44;;;;;;;9.50;4.97;;;3.40;99.90;;;;;;5117307;28;20023;-81
2022/01/20 01:30:37;;;;;;;8.53;4.57;;;3.30;99.90;;;;;;5099800;28;20028;-80
2022/01/20 01:32:57;;;;;;;10.30;5.00;;;3.30;99.90;;;;;;5095799;28;20107;-80
2022/01/20 01:35:26;;;;;;;8.00;4.83;;;3.30;99.90;;;;;;5099588;28;20484;-80
2022/01/20 01:40:22;;;;;;;8.83;5.20;;;3.30;99.90;;;;;;5110641;28;20384;-80
2022/01/20 01:42:50;;;;;;;9.73;5.33;;;3.30;99.90;;;;;;5105566;28;20024;-79
2022/01/20 01:45:29;;;;;;;10.37;5.40;;;3.30;99.90;;;;;;5097940;28;20024;-79
2022/01/20 01:47:55;;;;;;;8.30;4.90;;;3.30;99.90;;;;;;5098042;28;20122;-79
2022/01/20 01:50:22;;;;;;;10.63;5.40;;;3.30;99.90;;;;;;5099343;28;20115;-78
2022/01/20 01:52:47;;;;;;;8.73;5.07;;;3.30;99.90;;;;;;5098667;28;20023;-78
2022/01/20 01:55:13;;;;;;;8.33;4.63;;;3.30;99.90;;;;;;5099294;28;20032;-82
2022/01/20 01:57:39;;;;;;;10.57;5.23;;;3.30;99.90;;;;;;5117073;28;20457;-81
2022/01/20 02:00:07;;;;;;;9.60;4.90;;;3.20;99.90;;;;;;5098757;28;20023;-81
2022/01/20 02:02:33;;;;;;;9.13;5.23;;;3.20;99.90;;;;;;5098822;28;20023;-82
2022/01/20 02:04:59;;;;;;;8.93;4.80;;;3.30;99.90;;;;;;5115998;28;20515;-81
2022/01/20 02:20:50;;;;;;;7.73;4.33;;;3.30;99.90;;;;;;5115650;28;20019;-81
2022/01/20 02:23:15;;;;;;;8.47;4.87;;;3.30;99.90;;;;;;5098302;28;20456;-81
2022/01/20 02:25:41;;;;;;;7.73;4.67;;;3.20;99.90;;;;;;5115323;28;20464;-79
2022/01/20 02:28:09;;;;;;;10.40;5.00;;;3.30;99.90;;;;;;5096930;28;20028;-79
2022/01/20 02:30:36;;;;;;;9.47;5.30;;;3.30;99.90;;;;;;5097751;28;20080;-79
2022/01/20 02:33:05;;;;;;;7.37;4.43;;;3.30;99.90;;;;;;5097445;28;20253;-79
2022/01/20 02:35:34;;;;;;;7.80;4.50;;;3.30;99.90;;;;;;5097752;28;20468;-78
2022/01/20 02:38:29;;;;;;;9.33;4.60;;;3.30;99.90;;;;;;5097798;28;20035;-81
2022/01/20 02:46:04;;;;;;;9.33;4.80;;;3.30;99.90;;;;;;5115776;28;20034;-81
2022/01/20 02:48:30;;;;;;;8.75;4.35;;;3.30;99.90;;;;;;5098173;28;20028;-81
2022/01/20 02:50:57;;;;;;;9.37;4.50;;;3.30;99.90;;;;;;5115491;28;20042;-78
2022/01/20 02:53:23;;;;;;;8.83;4.87;;;3.30;99.90;;;;;;5097750;28;20157;-78
2022/01/20 02:55:49;;;;;;;8.13;4.70;;;3.30;99.90;;;;;;5096698;28;20066;-78
2022/01/20 02:58:14;;;;;;;7.77;4.20;;;3.40;99.90;;;;;;5097338;28;20059;-79
2022/01/20 03:00:40;;;;;;;7.87;4.13;;;3.30;99.90;;;;;;5097063;28;20453;-79
2022/01/20 03:03:06;;;;;;;6.57;4.20;;;3.40;99.90;;;;;;5097481;28;20030;-79
2022/01/20 03:05:31;;;;;;;8.63;4.90;;;3.40;99.90;;;;;;5097670;28;20369;-79
2022/01/20 03:08:00;;;;;;;8.40;4.73;;;3.40;99.90;;;;;;5114727;28;20035;-79
2022/01/20 03:10:26;;;;;;;9.07;4.77;;;3.30;99.90;;;;;;5091143;28;20036;-80
2022/01/20 03:12:52;;;;;;;6.23;3.83;;;3.30;99.90;;;;;;5114840;28;20388;-79
2022/01/20 03:15:17;;;;;;;9.73;5.37;;;3.40;99.90;;;;;;5097411;28;20023;-79
2022/01/20 03:17:43;;;;;;;8.13;4.70;;;3.30;99.90;;;;;;5096759;28;20028;-78
2022/01/20 03:20:09;;;;;;;10.03;4.73;;;3.30;99.90;;;;;;5097040;28;20026;-79
2022/01/20 03:22:35;;;;;;;7.67;4.50;;;3.30;99.90;;;;;;5115378;28;20028;-79
2022/01/20 03:25:01;;;;;;;9.73;4.30;;;3.30;99.90;;;;;;5096359;28;20040;-79
2022/01/20 03:27:26;;;;;;;7.97;4.53;;;3.30;99.90;;;;;;5096834;28;20114;-79
2022/01/20 03:29:52;;;;;;;8.23;4.43;;;3.30;99.90;;;;;;5095432;28;20050;-79
2022/01/20 03:32:18;;;;;;;8.73;4.67;;;3.30;99.90;;;;;;5114741;28;20031;-79
2022/01/20 03:34:43;;;;;;;8.87;4.43;;;3.30;99.90;;;;;;5096199;28;20027;-78
2022/01/20 03:37:09;;;;;;;8.73;4.47;;;3.30;99.90;;;;;;5115292;28;20027;-79
2022/01/20 03:39:35;;;;;;;8.67;4.97;;;3.30;99.90;;;;;;5093877;28;20122;-78
2022/01/20 03:42:01;;;;;;;8.23;4.67;;;3.30;99.90;;;;;;5093884;28;20035;-79
2022/01/20 03:44:26;;;;;;;7.10;4.37;;;3.30;99.90;;;;;;5095255;28;20028;-79
2022/01/20 03:46:52;;;;;;;9.73;4.00;;;3.30;99.90;;;;;;5114451;28;20063;-79
2022/01/20 03:49:34;;;;;;;6.53;4.03;;;3.30;99.90;;;;;;5096891;28;20439;-79
2022/01/20 03:52:02;;;;;;;8.83;4.40;;;3.30;99.90;;;;;;5114162;28;20457;-79
2022/01/20 03:54:28;;;;;;;7.17;4.10;;;3.40;99.90;;;;;;5096208;28;20026;-79
2022/01/20 03:56:54;;;;;;;9.03;4.30;;;3.40;99.90;;;;;;5095635;28;20031;-79
2022/01/20 03:59:19;;;;;;;7.97;4.47;;;3.40;99.90;;;;;;5096530;28;20114;-79
2022/01/20 04:01:45;;;;;;;10.27;4.20;;;3.40;99.90;;;;;;5113825;28;20059;-77
2022/01/20 04:04:11;;;;;;;7.67;4.00;;;3.40;99.90;;;;;;5096173;28;20019;-79
2022/01/20 04:06:37;;;;;;;8.30;4.30;;;3.40;99.90;;;;;;5096310;28;20027;-78
2022/01/20 04:09:04;;;;;;;9.20;4.53;;;3.50;99.90;;;;;;5095414;28;20607;-79
2022/01/20 04:11:29;;;;;;;8.50;4.47;;;3.50;99.90;;;;;;5077787;28;20060;-78
2022/01/20 04:13:56;;;;;;;7.20;3.53;;;3.40;99.90;;;;;;5107734;28;20027;-79
2022/01/20 04:16:37;;;;;;;7.03;4.30;;;3.50;99.90;;;;;;5096595;28;20023;-79
2022/01/20 04:19:10;;;;;;;7.83;4.23;;;3.50;99.90;;;;;;5113616;28;20582;-79
2022/01/20 04:21:39;;;;;;;6.83;3.90;;;3.50;99.90;;;;;;5113879;28;20024;-78
2022/01/20 04:24:06;;;;;;;7.40;4.30;;;3.50;99.90;;;;;;5113386;28;20046;-79
2022/01/20 04:26:35;;;;;;;8.50;4.93;;;3.50;99.90;;;;;;5096099;28;20437;-79
2022/01/20 04:29:01;;;;;;;7.27;4.17;;;3.50;99.90;;;;;;5095502;28;20027;-79
2022/01/20 04:31:30;;;;;;;8.40;4.63;;;3.50;99.90;;;;;;5096120;28;20035;-79
2022/01/20 04:33:57;;;;;;;8.93;4.83;;;3.50;99.90;;;;;;5095771;28;20035;-78
2022/01/20 04:36:24;;;;;;;8.63;4.87;;;3.40;99.90;;;;;;5096112;28;20031;-79
2022/01/20 04:38:50;;;;;;;12.97;5.80;;;3.50;99.90;;;;;;5095903;28;20019;-78
2022/01/20 04:41:16;;;;;;;10.97;5.50;;;3.50;99.90;;;;;;5087644;28;20046;-80
2022/01/20 04:43:42;;;;;;;8.43;4.90;;;3.40;99.90;;;;;;5095115;28;20446;-78
2022/01/20 04:46:18;;;;;;;9.10;5.03;;;3.50;99.90;;;;;;5094823;28;20023;-79
2022/01/20 04:49:11;;;;;;;8.17;4.80;;;3.50;99.90;;;;;;5092847;28;20063;-79
2022/01/20 04:59:26;;;;;;;11.57;5.73;;;3.50;99.90;;;;;;5113931;28;20031;-79
2022/01/20 05:01:52;;;;;;;10.60;5.87;;;3.50;99.90;;;;;;5112477;28;20061;-80
2022/01/20 05:04:17;;;;;;;11.57;5.63;;;3.50;99.90;;;;;;5095428;28;20023;-80
2022/01/20 05:06:44;;;;;;;8.77;5.17;;;3.50;99.90;;;;;;5095570;28;20091;-79
2022/01/20 05:09:17;;;;;;;10.57;5.50;;;3.50;99.90;;;;;;5095086;28;20024;-80
2022/01/20 05:11:47;;;;;;;10.53;6.23;;;3.50;99.90;;;;;;5087154;28;20056;-77
2022/01/20 05:14:12;;;;;;;9.30;5.53;;;3.50;99.90;;;;;;5095681;28;20034;-80
2022/01/20 05:16:38;;;;;;;12.33;5.80;;;3.50;99.90;;;;;;5112854;28;20110;-80
2022/01/20 05:19:04;;;;;;;12.00;5.63;;;3.50;99.90;;;;;;5094891;28;20457;-80
2022/01/20 05:21:29;;;;;;;9.97;5.77;;;3.50;99.90;;;;;;5095533;28;20027;-80
2022/01/20 05:23:55;;;;;;;12.00;6.37;;;3.50;99.90;;;;;;5094419;28;20051;-80
2022/01/20 05:26:20;;;;;;;11.13;5.57;;;3.50;99.90;;;;;;5113437;28;20023;-82
2022/01/20 05:28:46;;;;;;;10.97;5.63;;;3.50;99.90;;;;;;5113168;28;20074;-77
2022/01/20 05:31:11;;;;;;;12.10;5.63;;;3.50;99.90;;;;;;5095825;28;20035;-80
2022/01/20 05:33:37;;;;;;;12.83;5.67;;;3.50;99.90;;;;;;5113468;28;20024;-80
2022/01/20 05:36:03;;;;;;;11.40;5.80;;;3.50;99.90;;;;;;5094576;28;20139;-80
2022/01/20 05:38:29;;;;;;;11.80;6.10;;;3.50;99.90;;;;;;5093501;28;20168;-78
2022/01/20 05:40:55;;;;;;;12.10;5.77;;;3.60;99.90;;;;;;5087347;28;20031;-79
2022/01/20 05:43:20;;;;;;;11.17;5.53;;;3.50;99.90;;;;;;5095183;28;20027;-79
2022/01/20 05:45:46;;;;;;;9.00;5.40;;;3.50;99.90;;;;;;5095233;28;20114;-78
2022/01/20 05:48:17;;;;;;;12.27;5.70;;;3.60;99.90;;;;;;5095647;28;20035;-79
2022/01/20 05:50:44;;;;;;;13.10;5.73;;;3.50;99.90;;;;;;5113456;28;20115;-81
2022/01/20 05:53:10;;;;;;;9.53;5.40;;;3.60;99.90;;;;;;5097080;28;20024;-80
2022/01/20 05:55:37;;;;;;;10.57;5.70;;;3.60;99.90;;;;;;5099237;28;20024;-79
2022/01/20 05:58:05;;;;;;;10.63;5.23;;;3.60;99.90;;;;;;5098797;28;20031;-80
2022/01/20 06:00:32;;;;;;;12.07;5.97;;;3.60;99.90;;;;;;5115226;28;20024;-80
2022/01/20 06:05:42;;;;;;;10.37;5.70;;;3.60;99.90;;;;;;5116852;28;20043;-80
2022/01/20 06:08:09;;;;;;;10.37;5.80;;;3.60;99.90;;;;;;5098163;28;20031;-79
2022/01/20 06:10:34;;;;;;;14.37;6.13;;;3.60;99.90;;;;;;5098273;28;20040;-80
2022/01/20 06:13:01;;;;;;;13.80;6.17;;;3.60;99.90;;;;;;5097498;28;20486;-79
2022/01/20 06:15:27;;;;;;;9.80;5.17;;;3.60;99.90;;;;;;5116335;28;20034;-79
2022/01/20 06:17:52;;;;;;;11.53;5.90;;;3.60;99.90;;;;;;5115666;28;20028;-79
2022/01/20 06:20:18;;;;;;;11.67;5.80;;;3.60;99.90;;;;;;5097729;28;20031;-81
2022/01/20 06:22:44;;;;;;;9.60;5.30;;;3.60;99.90;;;;;;5097456;28;20387;-79
2022/01/20 06:25:09;;;;;;;14.10;6.53;;;3.60;99.90;;;;;;5097319;28;20043;-79
2022/01/20 06:27:36;;;;;;;12.53;5.90;;;3.60;99.90;;;;;;5098015;28;20035;-79
2022/01/20 06:30:05;;;;;;;12.97;6.67;;;3.70;99.90;;;;;;5115984;28;20051;-79
2022/01/20 06:32:32;;;;;;;10.57;5.70;;;3.70;99.90;;;;;;5095932;28;20028;-79
2022/01/20 06:34:57;;;;;;;13.43;6.70;;;3.70;99.90;;;;;;5084187;28;20113;-79
2022/01/20 06:37:23;;;;;;;11.63;6.30;;;3.60;99.90;;;;;;5098141;28;20139;-80
2022/01/20 06:39:48;;;;;;;11.00;6.40;;;3.60;99.90;;;;;;5093381;28;20483;-79
2022/01/20 06:42:14;;;;;;;12.03;5.73;;;3.60;99.90;;;;;;5113793;28;20036;-79
2022/01/20 06:44:40;;;;;;;13.37;6.47;;;3.70;99.90;;;;;;5081607;28;20114;-80
2022/01/20 06:47:05;;;;;;;13.23;6.23;;;3.70;99.90;;;;;;5097401;28;20023;-80
2022/01/20 06:49:31;;;;;;;14.47;6.40;;;3.70;99.90;;;;;;5097759;28;20035;-79
2022/01/20 06:51:57;;;;;;;10.57;6.23;;;3.70;99.90;;;;;;5097264;28;20059;-79
2022/01/20 06:54:23;;;;;;;14.33;7.13;;;3.70;99.90;;;;;;5115765;28;20058;-79
2022/01/20 06:56:48;;;;;;;14.23;6.40;;;3.60;99.90;;;;;;5097472;28;20389;-79
2022/01/20 06:59:16;;;;;;;15.07;6.63;;;3.70;99.90;;;;;;5098016;28;20114;-79
2022/01/20 07:01:44;;;;;;;14.60;6.60;;;3.60;99.90;;;;;;5097560;28;20028;-81
2022/01/20 07:04:13;;;;;;;12.30;6.90;;;3.60;99.90;;;;;;5096960;28;20027;-80
2022/01/20 07:06:39;;;;;;;13.97;6.83;;;3.60;99.90;;;;;;5097797;28;20030;-79
2022/01/20 07:09:05;;;;;;;13.57;6.93;;;3.60;99.90;;;;;;5095961;28;20027;-79
2022/01/20 07:11:31;;;;;;;13.40;7.00;;;3.60;99.90;;;;;;5090997;28;20053;-79
2022/01/20 07:13:57;;;;;;;14.03;7.43;;;3.60;99.90;;;;;;5096878;28;20069;-78
2022/01/20 07:16:23;;;;;;;13.07;6.93;;;3.60;99.90;;;;;;5114815;28;20032;-79
2022/01/20 07:18:50;;;;;;;13.67;7.07;;;3.60;99.90;;;;;;5114961;28;20031;-77
2022/01/20 07:21:16;;;;;;;16.13;7.40;;;3.60;99.90;;;;;;5096819;28;20029;-80
2022/01/20 07:23:42;;;;;;;12.87;7.00;;;3.60;99.90;;;;;;5097027;28;20027;-81
2022/01/20 07:26:07;;;;;;;14.00;7.40;;;3.60;99.90;;;;;;5096390;28;20016;-80
2022/01/20 07:28:33;;;;;;;12.80;6.83;;;3.60;99.90;;;;;;5097400;28;20062;-80
2022/01/20 07:30:59;;;;;;;15.73;7.60;;;3.70;99.90;;;;;;5096637;28;20024;-79
2022/01/20 07:33:24;;;;;;;12.53;7.13;;;3.70;99.90;;;;;;5114702;28;20019;-80
2022/01/20 07:35:50;;;;;;;14.40;7.50;;;3.70;99.90;;;;;;5095442;28;20165;-81
2022/01/20 07:38:16;;;;;;;11.67;6.77;;;3.70;99.90;;;;;;5114560;28;20023;-79
2022/01/20 07:40:41;;;;;;;14.77;7.07;;;3.70;99.90;;;;;;5093225;28;20467;-79
2022/01/20 07:43:07;;;;;;;14.10;6.37;;;3.80;99.90;;;;;;5114374;28;20022;-80
2022/01/20 07:45:33;;;;;;;14.17;6.87;;;3.80;99.90;;;;;;5089923;28;20022;-80
2022/01/20 07:47:59;;;;;;;12.17;6.30;;;3.80;99.90;;;;;;5095575;28;20023;-80
2022/01/20 07:50:25;;;;;;;13.77;6.80;;;3.80;99.90;;;;;;5114224;28;20050;-81
2022/01/20 07:52:51;;;;;;;14.90;6.37;;;3.80;99.90;;;;;;5113675;28;20028;-79
2022/01/20 07:55:17;;;;;;;16.23;7.10;;;3.80;99.90;;;;;;5096708;28;20034;-80
2022/01/20 07:57:43;;;;;;;13.73;6.80;;;3.80;99.90;;;;;;5114492;28;20482;-80
2022/01/20 08:00:10;;;;;;;12.97;6.40;;;3.80;99.90;;;;;;5095996;28;20215;-83
2022/01/20 08:02:35;;;;;;;11.00;6.07;;;3.80;99.90;;;;;;5113760;28;20051;-81
2022/01/20 08:05:01;;;;;;;11.27;6.40;;;3.80;99.90;;;;;;5095217;28;20092;-81
2022/01/20 08:07:27;;;;;;;12.57;6.27;;;3.80;99.90;;;;;;5095477;28;20035;-80
2022/01/20 08:09:59;;;;;;;13.73;6.30;;;3.80;99.90;;;;;;5093589;28;20532;-79
2022/01/20 08:12:28;;;;;;;16.02;6.47;;;3.80;99.90;;;;;;5095614;28;20028;-80
2022/01/20 08:14:56;;;;;;;11.70;5.83;;;3.80;99.90;;;;;;5104107;28;20156;-79
2022/01/20 08:17:22;;;;;;;12.33;5.93;;;3.80;99.90;;;;;;5096200;28;20032;-79
2022/01/20 08:19:49;;;;;;;12.10;5.67;;;3.80;99.90;;;;;;5095061;28;20094;-78
2022/01/20 08:22:15;;;;;;;9.73;5.83;;;3.80;99.90;;;;;;5092877;28;20027;-79
2022/01/20 08:24:41;;;;;;;15.73;6.77;;;3.80;99.90;;;;;;5093197;28;20050;-79
2022/01/20 08:27:11;;;;;;;15.67;6.73;;;3.80;99.90;;;;;;5094865;28;20154;-79
2022/01/20 08:29:37;;;;;;;15.50;6.30;;;3.90;99.90;;;;;;5093240;28;20023;-82
2022/01/20 08:32:04;;;;;;;15.67;6.97;;;3.90;99.90;;;;;;5095486;28;20020;-81
2022/01/20 08:34:30;;;;;;;12.93;5.87;;;3.90;99.90;;;;;;5095180;28;20472;-79
2022/01/20 08:36:56;;;;;;;15.30;6.13;;;3.90;99.90;;;;;;5112260;28;20080;-79
2022/01/20 08:42:02;;;;;;;13.87;5.17;;;3.90;99.90;;;;;;5110195;28;20016;-79
2022/01/20 08:44:27;;;;;;;15.33;5.77;;;3.90;99.90;;;;;;5093332;28;20204;-80
2022/01/20 08:46:53;;;;;;;14.13;5.73;;;3.90;99.90;;;;;;5112786;28;20543;-79
2022/01/20 08:49:20;;;;;;;12.50;5.97;;;4.00;99.90;;;;;;5113500;28;20043;-80
2022/01/20 08:51:46;;;;;;;14.10;5.83;;;4.00;99.90;;;;;;5113306;28;20027;-78
2022/01/20 08:54:13;;;;;;;11.23;6.00;;;4.00;99.90;;;;;;5113254;28;20417;-79
2022/01/20 08:56:40;;;;;;;12.60;5.60;;;4.00;99.90;;;;;;5095557;28;20016;-78
2022/01/20 08:59:07;;;;;;;13.10;5.87;;;4.00;99.90;;;;;;5094922;28;20020;-79
2022/01/20 09:01:33;;;;;;;17.27;6.00;;;4.10;99.90;;;;;;5095056;28;20034;-77
2022/01/20 09:03:59;;;;;;;15.20;6.00;;;4.10;99.90;;;;;;5093904;28;20047;-77
2022/01/20 09:06:25;;;;;;;17.00;6.70;;;4.10;99.90;;;;;;5112712;28;20456;-77
2022/01/20 09:08:51;;;;;;;14.20;5.77;;;4.10;99.90;;;;;;5094426;28;20490;-77
2022/01/20 09:11:22;;;;;;;16.13;5.77;;;4.10;99.90;;;;;;5094745;28;20492;-78
2022/01/20 09:16:33;;;;;;;14.57;5.70;;;4.10;99.90;;;;;;5111379;28;20108;-77
2022/01/20 09:18:59;;;;;;;14.43;6.37;;;4.20;99.90;;;;;;5089980;28;20024;-75
2022/01/20 09:21:26;;;;;;;15.57;5.40;;;4.20;99.90;;;;;;5111812;28;20031;-77
2022/01/20 09:23:52;;;;;;;17.07;6.23;;;4.10;99.90;;;;;;5089822;28;20437;-74
2022/01/20 09:26:17;;;;;;;9.87;5.67;;;4.10;99.90;;;;;;5090447;28;20081;-77
2022/01/20 09:28:43;;;;;;;17.37;6.27;;;4.10;99.90;;;;;;5093923;28;20028;-77
2022/01/20 09:31:10;;;;;;;12.63;5.80;;;4.00;99.90;;;;;;5094150;28;20028;-77
2022/01/20 09:33:36;;;;;;;14.33;6.27;;;4.00;99.90;;;;;;5095937;28;20385;-77
2022/01/20 09:36:09;;;;;;;12.67;5.93;;;4.00;99.90;;;;;;5095812;28;20389;-79
2022/01/20 09:38:35;;;;;;;13.40;6.07;;;4.10;99.90;;;;;;5094632;28;20645;-79
2022/01/20 09:41:01;;;;;;;12.13;6.07;;;4.10;99.90;;;;;;5094175;28;20453;-79
2022/01/20 09:43:27;;;;;;;12.90;5.50;;;4.20;99.90;;;;;;5096410;28;20496;-79
2022/01/20 09:45:55;;;;;;;14.07;6.07;;;4.30;99.90;;;;;;5094145;28;20052;-77
2022/01/20 09:48:22;;;;;;;11.63;5.37;;;4.40;99.90;;;;;;5096719;28;20388;-79
2022/01/20 09:50:48;;;;;;;11.97;5.67;;;4.40;99.90;;;;;;5096836;28;20039;-79
2022/01/20 09:53:15;;;;;;;12.77;5.80;;;4.40;99.90;;;;;;5095414;28;20031;-79
2022/01/20 09:55:41;;;;;;;12.73;5.97;;;4.40;99.90;;;;;;5095696;28;20077;-80
2022/01/20 09:58:08;;;;;;;13.83;6.13;;;4.40;99.90;;;;;;5095087;28;20024;-79
2022/01/20 10:00:35;;;;;;;13.60;6.07;;;4.40;99.90;;;;;;5095420;28;20032;-76
2022/01/20 10:03:09;;;;;;;14.37;6.53;;;4.40;99.90;;;;;;5095831;28;20042;-78
2022/01/20 10:05:42;;;;;;;11.83;5.33;;;4.40;99.90;;;;;;5096673;28;20468;-79
2022/01/20 10:08:26;;;;;;;13.97;6.00;;;4.40;99.90;;;;;;5095470;28;20039;-79
2022/01/20 10:11:00;;;;;;;19.43;5.90;;;4.40;99.90;;;;;;5088614;28;20095;-77
2022/01/20 10:13:29;;;;;;;16.67;5.73;;;4.40;99.90;;;;;;5094938;28;20028;-77
2022/01/20 10:16:13;;;;;;;16.87;5.93;;;4.50;99.90;;;;;;5093854;28;20074;-78
2022/01/20 10:19:00;;;;;;;16.97;6.03;;;4.50;99.90;;;;;;5094470;28;20381;-77
2022/01/20 10:21:37;;;;;;;16.40;5.77;;;4.50;99.90;;;;;;5094313;28;20031;-78
2022/01/20 10:24:08;;;;;;;11.27;5.50;;;4.60;99.90;;;;;;5093492;28;20553;-78
2022/01/20 10:26:34;;;;;;;16.10;6.13;;;4.60;99.90;;;;;;5095497;28;20028;-78
2022/01/20 10:29:10;;;;;;;15.27;5.73;;;4.60;99.90;;;;;;5093834;28;20056;-78
2022/01/20 10:31:44;;;;;;;14.33;6.00;;;4.70;99.90;;;;;;5094572;28;20074;-79
2022/01/20 10:34:28;;;;;;;13.07;5.77;;;4.80;99.90;;;;;;5093650;28;20134;-79
2022/01/20 10:36:55;;;;;;;16.83;6.23;;;4.80;99.90;;;;;;5080363;28;20074;-77
2022/01/20 10:39:34;;;;;;;19.27;6.23;;;4.80;99.90;;;;;;5092825;28;20027;-77
2022/01/20 10:42:11;;;;;;;17.40;5.70;;;4.90;99.90;;;;;;5092937;28;20059;-79
2022/01/20 10:44:47;;;;;;;12.13;4.93;;;5.00;99.90;;;;;;5095475;28;20039;-79
2022/01/20 10:47:23;;;;;;;11.70;5.20;;;4.90;99.90;;;;;;5094549;28;20058;-79
2022/01/20 10:49:50;;;;;;;13.27;5.73;;;5.00;99.90;;;;;;5093965;28;20562;-79
2022/01/20 10:52:20;;;;;;;13.40;5.00;;;5.00;99.90;;;;;;5093950;28;20036;-77
2022/01/20 10:54:51;;;;;;;11.73;4.53;;;5.00;99.90;;;;;;5095118;28;20020;-77
2022/01/20 10:57:24;;;;;;;14.37;5.10;;;4.90;99.90;;;;;;5093991;28;20148;-76
2022/01/20 11:00:04;;;;;;;15.27;5.20;;;5.00;99.90;;;;;;5094962;28;20024;-78
2022/01/20 11:02:29;;;;;;;13.43;5.47;;;5.00;99.90;;;;;;5094530;28;20024;-80
2022/01/20 11:04:57;;;;;;;12.57;4.93;;;5.00;99.90;;;;;;5094229;28;20567;-80
2022/01/20 11:07:23;;;;;;;16.73;5.57;;;5.00;99.90;;;;;;5093516;28;20086;-79
2022/01/20 11:10:07;;;;;;;15.43;5.57;;;5.10;99.90;;;;;;5093903;28;20059;-81
2022/01/20 11:12:36;;;;;;;19.27;5.37;;;5.20;99.90;;;;;;5095226;28;20347;-81
2022/01/20 11:15:06;;;;;;;11.27;5.03;;;5.30;99.90;;;;;;5094440;28;20024;-82
2022/01/20 11:17:33;;;;;;;16.73;4.80;;;5.20;99.90;;;;;;5093889;28;20044;-79
2022/01/20 11:20:08;;;;;;;12.90;4.67;;;5.20;99.90;;;;;;5093612;28;20055;-80
2022/01/20 11:22:34;;;;;;;13.00;4.77;;;5.20;99.90;;;;;;5094215;28;20027;-79
2022/01/20 11:25:10;;;;;;;14.67;4.70;;;5.20;99.90;;;;;;5093112;28;20048;-78
2022/01/20 11:27:37;;;;;;;11.73;4.10;;;5.30;99.90;;;;;;5091982;28;20028;-79
2022/01/20 11:30:18;;;;;;;13.37;4.47;;;5.30;99.90;;;;;;5092677;28;20032;-79
2022/01/20 11:32:56;;;;;;;12.37;4.20;;;5.40;99.90;;;;;;5077311;28;20024;-79
2022/01/20 11:35:21;;;;;;;15.63;4.37;;;5.60;99.90;;;;;;5093335;28;20457;-77
2022/01/20 11:37:58;;;;;;;9.23;3.80;;;5.80;99.90;;;;;;5093136;28;20032;-79
2022/01/20 11:40:24;;;;;;;11.00;3.87;;;5.90;99.90;;;;;;5091792;28;20020;-77
2022/01/20 11:43:11;;;;;;;10.73;4.20;;;6.00;99.90;;;;;;5092338;28;20479;-78
2022/01/20 11:45:47;;;;;;;5.20;1.70;;;5.90;99.90;;;;;;5093534;28;20031;-79
2022/01/20 11:48:17;;;;;;;2.50;1.00;;;5.50;99.90;;;;;;5089522;28;20169;-80
2022/01/20 11:50:44;;;;;;;4.87;2.13;;;5.20;99.90;;;;;;5093858;28;20028;-81
2022/01/20 11:53:14;;;;;;;3.20;1.17;;;4.80;99.90;;;;;;5092418;28;20024;-79
2022/01/20 11:55:57;;;;;;;4.27;1.10;;;4.60;99.90;;;;;;5094613;28;20024;-80
2022/01/20 11:58:25;;;;;;;2.60;1.17;;;4.50;99.90;;;;;;5092658;28;20035;-77
2022/01/20 12:01:01;;;;;;;1.90;0.90;;;4.40;99.90;;;;;;5092140;28;20028;-77
2022/01/20 12:03:29;;;;;;;1.87;0.70;;;4.30;99.90;;;;;;5092721;28;20073;-79
2022/01/20 12:06:12;;;;;;;3.50;0.70;;;4.10;99.90;;;;;;5092055;28;20122;-77
2022/01/20 12:09:03;;;;;;;5.77;1.00;;;4.10;99.90;;;;;;5092880;28;20032;-78
2022/01/20 12:11:35;;;;;;;3.27;0.73;;;4.20;99.90;;;;;;5092861;28;20036;-79
2022/01/20 12:14:01;;;;;;;3.40;0.93;;;4.10;99.90;;;;;;5092018;28;20055;-79
2022/01/20 12:16:27;;;;;;;4.23;1.07;;;4.20;99.90;;;;;;5093656;28;20460;-77
2022/01/20 12:18:56;;;;;;;3.70;1.20;;;4.20;99.90;;;;;;5091528;28;20052;-77
2022/01/20 12:21:23;;;;;;;6.90;1.43;;;4.20;99.90;;;;;;5092023;28;20035;-77
2022/01/20 12:23:50;;;;;;;3.63;1.27;;;4.20;99.90;;;;;;5092006;28;20059;-78
2022/01/20 12:26:16;;;;;;;3.57;1.20;;;4.30;99.90;;;;;;5091940;28;20296;-80
2022/01/20 12:28:43;;;;;;;5.13;1.50;;;4.30;99.90;;;;;;5092415;28;20339;-78
2022/01/20 12:31:12;;;;;;;4.67;1.20;;;4.20;99.90;;;;;;5091426;28;20081;-78
2022/01/20 12:33:43;;;;;;;5.93;1.33;;;4.20;99.90;;;;;;5092365;28;20024;-79
2022/01/20 12:36:14;;;;;;;5.03;1.20;;;4.20;99.90;;;;;;5091382;28;20028;-81
2022/01/20 12:38:40;;;;;;;5.20;1.70;;;4.20;99.90;;;;;;5092602;28;20032;-79
2022/01/20 12:41:07;;;;;;;7.00;1.60;;;4.20;99.90;;;;;;5092174;28;20024;-82
2022/01/20 12:44:05;;;;;;;5.00;1.90;;;4.20;99.90;;;;;;5093637;28;20020;-79
2022/01/20 12:46:39;;;;;;;7.00;1.70;;;4.20;99.90;;;;;;5092708;28;20035;-80
2022/01/20 12:49:11;;;;;;;8.27;1.90;;;4.30;99.90;;;;;;5092009;28;20032;-81
2022/01/20 12:51:40;;;;;;;;;;;4.20;99.90;;;;;;5093721;28;20020;-81
2022/01/20 12:54:27;;;;;;;5.90;1.40;;;4.30;99.90;;;;;;5092040;28;19956;-80
2022/01/20 12:56:55;;;;;;;4.63;1.07;;;4.20;99.90;;;;;;5093062;28;20046;-81
2022/01/20 12:59:25;;;;;;;3.83;1.30;;;4.20;99.90;;;;;;5092364;28;20032;-79
2022/01/20 13:01:52;;;;;;;7.17;1.53;;;4.20;99.90;;;;;;5092669;28;20020;-79
2022/01/20 13:04:22;;;;;;;2.93;1.30;;;4.20;99.90;;;;;;5092564;28;20035;-82
2022/01/20 13:07:01;;;;;;;5.80;1.40;;;4.30;99.90;;;;;;5092984;28;20465;-81
2022/01/20 13:09:40;;;;;;;4.97;1.70;;;4.20;99.90;;;;;;5092777;28;20024;-84
2022/01/20 13:12:07;;;;;;;6.73;1.77;;;4.20;99.90;;;;;;5092044;28;20032;-83
2022/01/20 13:14:43;;;;;;;4.40;1.47;;;4.20;99.90;;;;;;5093140;28;20028;-80
2022/01/20 13:17:11;;;;;;;8.33;1.63;;;4.30;99.90;;;;;;5091647;28;20032;-77
2022/01/20 13:19:45;;;;;;;41.47;17.43;;;4.30;99.90;;;;;;5092284;28;20024;-78
2022/01/20 13:22:28;;;;;;;54.83;24.20;;;4.50;99.90;;;;;;5091759;28;20050;-77
2022/01/20 13:25:26;;;;;;;6.33;2.90;;;4.50;99.90;;;;;;5077299;28;20040;-80
2022/01/20 13:28:00;;;;;;;6.23;2.43;;;4.50;99.90;;;;;;5084435;28;20101;-81
2022/01/20 13:30:47;;;;;;;8.97;2.30;;;4.50;99.90;;;;;;5092396;28;20032;-81
2022/01/20 13:33:24;;;;;;;3.90;1.70;;;4.40;99.90;;;;;;5091577;28;20032;-81
2022/01/20 13:36:02;;;;;;;4.50;1.67;;;4.40;99.90;;;;;;5092118;28;20084;-82
2022/01/20 13:38:41;;;;;;;3.03;1.57;;;4.40;99.90;;;;;;5087890;28;20040;-81
2022/01/20 13:41:09;;;;;;;7.00;2.03;;;4.40;99.90;;;;;;5092436;28;20452;-81
2022/01/20 13:46:39;;;;;;;6.43;1.50;;;4.50;99.90;;;;;;5093291;28;20038;-83
2022/01/20 13:49:17;;;;;;;4.97;1.93;;;4.50;99.90;;;;;;5091763;28;20036;-82
2022/01/20 13:51:43;;;;;;;4.63;1.60;;;4.50;99.90;;;;;;5093223;28;20035;-82
2022/01/20 13:54:10;;;;;;;4.97;1.90;;;4.60;99.90;;;;;;5091553;28;20030;-82
2022/01/20 13:56:35;;;;;;;5.63;1.57;;;4.60;99.90;;;;;;5092179;28;20024;-81
2022/01/20 13:59:07;;;;;;;3.03;1.50;;;4.60;99.90;;;;;;5091308;28;20024;-81
2022/01/20 14:01:33;;;;;;;6.57;1.60;;;4.70;99.90;;;;;;5091550;28;20035;-83
2022/01/20 14:04:00;;;;;;;7.07;1.40;;;4.60;99.90;;;;;;5090986;28;20035;-76
2022/01/20 14:06:26;;;;;;;5.43;1.30;;;4.70;99.90;;;;;;5092896;28;20107;-80
2022/01/20 14:08:52;;;;;;;3.23;1.50;;;4.80;99.90;;;;;;5091658;28;20032;-80
2022/01/20 14:11:19;;;;;;;5.60;1.37;;;4.90;99.90;;;;;;5083746;28;20047;-81
2022/01/20 14:13:45;;;;;;;3.97;1.40;;;5.00;99.90;;;;;;5092568;28;20028;-82